Time;durP1;ratioP1;P1;durP2;ratioP2;P2;SDS_P1;SDS_P2;PMS_P1;PMS_P2;Temp;Humidity;BMP_temperature;BMP_pressure;BME280_temperature;BME280_humidity;BME280_pressure;Samples;Min_cycle;Max_cycle;Signal;HPM_P1;HPM_P2
2022/07/23 00:01:52;;;;;;;8.85;3.40;;;;;;;;;;4984394;28;20552;-78
2022/07/23 00:04:18;;;;;;;5.25;3.08;;;;;;;;;;5003454;28;20607;-79
2022/07/23 00:06:44;;;;;;;8.88;3.45;;;;;;;;;;4989298;28;20780;-80
2022/07/23 00:09:10;;;;;;;6.25;4.13;;;;;;;;;;4998093;28;20050;-80
2022/07/23 00:11:36;;;;;;;9.90;3.10;;;;;;;;;;5000545;28;20053;-79
2022/07/23 00:14:02;;;;;;;5.25;3.42;;;;;;;;;;5001770;28;20061;-80
2022/07/23 00:16:29;;;;;;;9.18;3.63;;;;;;;;;;4999701;28;20069;-80
2022/07/23 00:18:55;;;;;;;3.70;3.30;;;;;;;;;;5009349;28;20155;-80
2022/07/23 00:21:21;;;;;;;11.60;4.10;;;;;;;;;;5022282;28;20053;-80
2022/07/23 00:23:50;;;;;;;9.85;3.75;;;;;;;;;;5034603;28;20084;-80
2022/07/23 00:26:16;;;;;;;6.82;3.90;;;;;;;;;;5028609;28;20056;-78
2022/07/23 00:28:42;;;;;;;5.07;3.75;;;;;;;;;;5059243;28;20139;-79
2022/07/23 00:31:20;;;;;;;6.43;3.50;;;;;;;;;;5038100;28;20057;-79
2022/07/23 00:36:41;;;;;;;7.78;4.32;;;;;;;;;;5041761;28;20455;-78
2022/07/23 00:39:10;;;;;;;9.68;4.32;;;;;;;;;;5015694;28;20084;-79
2022/07/23 00:41:36;;;;;;;8.65;4.18;;;;;;;;;;5044323;28;20076;-81
2022/07/23 00:44:15;;;;;;;4.65;3.40;;;;;;;;;;5042957;28;20044;-81
2022/07/23 00:46:55;;;;;;;6.93;3.40;;;;;;;;;;5006920;28;20124;-81
2022/07/23 00:49:22;;;;;;;5.05;2.95;;;;;;;;;;5024836;28;20038;-79
2022/07/23 00:51:48;;;;;;;5.85;3.05;;;;;;;;;;5033634;28;20068;-79
2022/07/23 00:54:15;;;;;;;7.05;3.35;;;;;;;;;;5044001;28;20464;-79
2022/07/23 00:56:42;;;;;;;4.80;2.95;;;;;;;;;;5016896;28;20045;-78
2022/07/23 00:59:14;;;;;;;8.88;3.60;;;;;;;;;;5041629;28;20052;-82
2022/07/23 01:01:41;;;;;;;9.02;5.07;;;;;;;;;;5038386;28;20449;-78
2022/07/23 01:04:07;;;;;;;6.05;5.45;;;;;;;;;;5040731;28;20047;-79
2022/07/23 01:06:37;;;;;;;9.15;6.00;;;;;;;;;;5039221;28;20389;-78
2022/07/23 01:09:05;;;;;;;9.05;5.65;;;;;;;;;;5031736;28;20041;-78
2022/07/23 01:11:32;;;;;;;6.63;5.60;;;;;;;;;;5028879;28;20037;-80
2022/07/23 01:13:59;;;;;;;6.82;4.97;;;;;;;;;;5026309;28;20906;-78
2022/07/23 01:16:43;;;;;;;7.85;5.30;;;;;;;;;;5038310;28;20045;-80
2022/07/23 01:19:09;;;;;;;9.25;5.68;;;;;;;;;;5038270;28;20473;-80
2022/07/23 01:21:40;;;;;;;7.80;5.70;;;;;;;;;;5026171;28;20049;-78
2022/07/23 01:24:06;;;;;;;7.88;5.50;;;;;;;;;;5020171;28;20447;-78
2022/07/23 01:26:32;;;;;;;16.92;6.22;;;;;;;;;;5019177;28;20045;-78
2022/07/23 01:28:58;;;;;;;5.53;4.97;;;;;;;;;;5025569;28;20056;-81
2022/07/23 01:31:25;;;;;;;8.15;4.95;;;;;;;;;;5040574;28;20056;-79
2022/07/23 01:33:54;;;;;;;10.93;5.57;;;;;;;;;;5038902;28;20749;-82
2022/07/23 01:36:20;;;;;;;12.02;5.90;;;;;;;;;;5025745;28;20571;-79
2022/07/23 01:38:46;;;;;;;6.25;5.18;;;;;;;;;;5039892;28;20080;-78
2022/07/23 01:41:12;;;;;;;7.15;5.47;;;;;;;;;;5032125;28;20045;-80
2022/07/23 01:43:38;;;;;;;11.63;6.13;;;;;;;;;;5028663;28;20400;-80
2022/07/23 01:46:04;;;;;;;7.85;5.43;;;;;;;;;;5042127;28;20063;-79
2022/07/23 01:48:31;;;;;;;12.60;6.47;;;;;;;;;;5040774;28;20697;-79
2022/07/23 01:50:57;;;;;;;7.80;5.82;;;;;;;;;;5029468;28;20048;-79
2022/07/23 01:53:23;;;;;;;7.57;6.10;;;;;;;;;;5048715;28;20090;-81
2022/07/23 01:55:49;;;;;;;9.77;6.05;;;;;;;;;;5047639;28;20041;-80
2022/07/23 01:58:15;;;;;;;6.50;5.90;;;;;;;;;;5029098;28;20191;-80
2022/07/23 02:00:41;;;;;;;10.55;6.13;;;;;;;;;;5042979;28;20037;-80
2022/07/23 02:03:07;;;;;;;10.45;6.60;;;;;;;;;;5030733;28;20041;-81
2022/07/23 02:05:33;;;;;;;12.38;6.85;;;;;;;;;;5042853;28;20041;-81
2022/07/23 02:08:00;;;;;;;8.68;7.00;;;;;;;;;;5048054;28;20055;-81
2022/07/23 02:10:27;;;;;;;12.75;7.30;;;;;;;;;;5029722;28;20457;-80
2022/07/23 02:12:53;;;;;;;14.65;7.07;;;;;;;;;;5022288;28;20045;-81
2022/07/23 02:15:19;;;;;;;7.75;6.90;;;;;;;;;;5007366;28;20086;-82
2022/07/23 02:17:46;;;;;;;8.50;6.80;;;;;;;;;;5049188;28;20493;-81
2022/07/23 02:20:12;;;;;;;9.73;7.20;;;;;;;;;;5046122;28;20037;-81
2022/07/23 02:22:38;;;;;;;13.70;7.28;;;;;;;;;;5026159;28;20049;-81
2022/07/23 02:25:23;;;;;;;10.65;7.65;;;;;;;;;;5041387;28;21059;-82
2022/07/23 02:27:49;;;;;;;10.50;7.18;;;;;;;;;;5047000;28;20083;-81
2022/07/23 02:30:15;;;;;;;10.07;7.38;;;;;;;;;;5010398;28;20072;-82
2022/07/23 02:32:41;;;;;;;13.10;7.68;;;;;;;;;;5047251;28;20040;-81
2022/07/23 02:35:08;;;;;;;10.93;7.00;;;;;;;;;;5042784;28;20045;-80
2022/07/23 02:37:34;;;;;;;10.52;7.22;;;;;;;;;;5020073;28;20505;-81
2022/07/23 02:40:00;;;;;;;15.07;6.65;;;;;;;;;;5008064;28;20045;-81
2022/07/23 02:42:26;;;;;;;11.00;6.65;;;;;;;;;;5024104;28;20444;-81
2022/07/23 02:44:52;;;;;;;10.30;7.05;;;;;;;;;;5025245;28;20060;-80
2022/07/23 02:47:19;;;;;;;11.20;7.15;;;;;;;;;;5032497;28;20041;-82
2022/07/23 02:49:45;;;;;;;10.40;6.63;;;;;;;;;;5009108;28;20604;-80
2022/07/23 02:52:11;;;;;;;9.88;6.55;;;;;;;;;;5003096;28;20064;-81
2022/07/23 02:54:38;;;;;;;9.98;7.10;;;;;;;;;;5035487;28;20408;-78
2022/07/23 02:57:04;;;;;;;12.13;7.05;;;;;;;;;;5015842;28;20045;-77
2022/07/23 02:59:30;;;;;;;8.45;6.55;;;;;;;;;;5045416;28;20041;-78
2022/07/23 03:01:56;;;;;;;13.23;7.15;;;;;;;;;;5013539;28;20041;-79
2022/07/23 03:04:25;;;;;;;9.98;7.18;;;;;;;;;;5026145;28;20103;-79
2022/07/23 03:06:52;;;;;;;9.23;7.20;;;;;;;;;;5045976;28;20055;-80
2022/07/23 03:09:18;;;;;;;11.63;6.28;;;;;;;;;;5038059;28;20049;-80
2022/07/23 03:11:44;;;;;;;6.60;5.63;;;;;;;;;;5041086;28;20086;-79
2022/07/23 03:14:13;;;;;;;11.93;5.78;;;;;;;;;;5021332;28;20079;-78
2022/07/23 03:16:39;;;;;;;8.65;5.47;;;;;;;;;;5043947;28;20053;-79
2022/07/23 03:19:05;;;;;;;8.45;5.30;;;;;;;;;;5048801;28;20084;-79
2022/07/23 03:21:31;;;;;;;8.52;5.47;;;;;;;;;;5029442;28;20049;-79
2022/07/23 03:23:57;;;;;;;11.95;5.43;;;;;;;;;;5052540;28;20053;-80
2022/07/23 03:26:25;;;;;;;9.77;5.85;;;;;;;;;;5051464;28;20103;-79
2022/07/23 03:28:52;;;;;;;9.18;5.22;;;;;;;;;;5049201;28;20052;-80
2022/07/23 03:31:18;;;;;;;7.35;5.05;;;;;;;;;;5054991;28;20037;-79
2022/07/23 03:33:44;;;;;;;9.43;5.53;;;;;;;;;;5051173;28;20045;-79
2022/07/23 03:36:10;;;;;;;10.25;5.70;;;;;;;;;;5033133;28;20037;-79
2022/07/23 03:38:36;;;;;;;7.45;5.22;;;;;;;;;;4997848;28;20037;-79
2022/07/23 03:41:02;;;;;;;8.68;5.45;;;;;;;;;;5032342;28;20067;-78
2022/07/23 03:43:29;;;;;;;7.72;5.32;;;;;;;;;;5023856;28;20048;-79
2022/07/23 03:45:55;;;;;;;12.43;5.90;;;;;;;;;;5044168;28;20052;-78
2022/07/23 03:48:24;;;;;;;11.77;5.55;;;;;;;;;;5008811;28;20073;-80
2022/07/23 03:50:50;;;;;;;9.88;5.90;;;;;;;;;;4996632;28;20037;-79
2022/07/23 03:53:16;;;;;;;14.10;5.50;;;;;;;;;;5040829;28;20530;-80
2022/07/23 03:55:42;;;;;;;10.95;5.78;;;;;;;;;;5021438;28;20039;-79
2022/07/23 03:58:08;;;;;;;8.27;5.30;;;;;;;;;;5044014;28;20040;-81
2022/07/23 04:00:34;;;;;;;9.32;5.95;;;;;;;;;;5039124;28;20103;-80
2022/07/23 04:03:03;;;;;;;7.47;5.60;;;;;;;;;;5046716;28;20159;-80
2022/07/23 04:05:29;;;;;;;7.82;6.22;;;;;;;;;;5027510;28;20076;-80
2022/07/23 04:07:55;;;;;;;7.38;6.10;;;;;;;;;;5018974;28;20040;-79
2022/07/23 04:10:21;;;;;;;10.57;6.45;;;;;;;;;;4993075;28;20074;-79
2022/07/23 04:12:50;;;;;;;11.23;7.38;;;;;;;;;;5043116;28;20037;-81
2022/07/23 04:15:16;;;;;;;8.20;7.10;;;;;;;;;;5008771;28;20500;-79
2022/07/23 04:17:43;;;;;;;8.88;7.15;;;;;;;;;;5036747;28;20041;-81
2022/07/23 04:20:10;;;;;;;11.77;7.30;;;;;;;;;;5024662;28;20037;-80
2022/07/23 04:22:36;;;;;;;10.20;6.85;;;;;;;;;;5042974;28;20061;-80
2022/07/23 04:25:02;;;;;;;14.02;7.60;;;;;;;;;;4997602;28;20949;-79
2022/07/23 04:27:28;;;;;;;10.95;7.13;;;;;;;;;;5038952;28;20041;-79
2022/07/23 04:29:54;;;;;;;11.32;6.68;;;;;;;;;;5045407;28;20136;-79
2022/07/23 04:32:21;;;;;;;12.73;7.55;;;;;;;;;;5042204;28;20075;-82
2022/07/23 04:34:47;;;;;;;8.05;6.82;;;;;;;;;;5020092;28;20064;-80
2022/07/23 04:37:13;;;;;;;9.05;6.97;;;;;;;;;;5013655;28;20039;-80
2022/07/23 04:39:42;;;;;;;9.98;7.07;;;;;;;;;;5041692;28;20079;-80
2022/07/23 04:42:08;;;;;;;14.65;7.55;;;;;;;;;;5035374;28;20037;-79
2022/07/23 04:44:34;;;;;;;12.48;7.22;;;;;;;;;;5041601;28;20128;-81
2022/07/23 04:47:00;;;;;;;10.30;7.00;;;;;;;;;;5032501;28;20049;-79
2022/07/23 04:49:26;;;;;;;9.48;7.15;;;;;;;;;;5018637;28;20044;-81
2022/07/23 04:51:52;;;;;;;12.43;7.88;;;;;;;;;;5028211;28;20041;-79
2022/07/23 04:54:19;;;;;;;11.05;5.68;;;;;;;;;;5026284;28;20063;-82
2022/07/23 04:56:45;;;;;;;9.27;6.47;;;;;;;;;;5047603;28;20037;-81
2022/07/23 04:59:11;;;;;;;11.15;5.80;;;;;;;;;;5026684;28;20461;-80
2022/07/23 05:01:37;;;;;;;12.88;6.45;;;;;;;;;;5043052;28;20528;-79
2022/07/23 05:04:03;;;;;;;9.13;6.15;;;;;;;;;;5034410;28;20068;-80
2022/07/23 05:06:29;;;;;;;8.77;5.70;;;;;;;;;;5035261;28;20041;-79
2022/07/23 05:08:55;;;;;;;7.95;6.25;;;;;;;;;;5033521;28;20052;-80
2022/07/23 05:11:21;;;;;;;8.27;5.60;;;;;;;;;;5003705;28;20559;-79
2022/07/23 05:13:47;;;;;;;18.83;6.32;;;;;;;;;;5039967;28;20049;-79
2022/07/23 05:16:16;;;;;;;10.88;4.88;;;;;;;;;;5037491;28;20052;-80
2022/07/23 05:18:42;;;;;;;11.20;4.90;;;;;;;;;;5044802;28;20029;-82
2022/07/23 05:21:08;;;;;;;6.82;5.10;;;;;;;;;;5044263;28;20068;-81
2022/07/23 05:23:34;;;;;;;10.07;5.38;;;;;;;;;;5034170;28;20071;-81
2022/07/23 05:26:00;;;;;;;6.15;4.50;;;;;;;;;;5042853;28;20050;-82
2022/07/23 05:28:26;;;;;;;6.28;4.47;;;;;;;;;;5019575;28;20445;-83
2022/07/23 05:30:52;;;;;;;6.43;4.38;;;;;;;;;;5039103;28;20037;-82
2022/07/23 05:33:19;;;;;;;7.22;4.03;;;;;;;;;;5042513;28;20048;-82
2022/07/23 05:35:45;;;;;;;6.50;4.30;;;;;;;;;;5047497;28;20474;-82
2022/07/23 05:38:11;;;;;;;9.30;4.57;;;;;;;;;;5026976;28;20041;-82
2022/07/23 05:40:37;;;;;;;5.35;3.90;;;;;;;;;;5040909;28;20041;-84
2022/07/23 05:43:03;;;;;;;7.05;4.20;;;;;;;;;;5044288;28;20054;-82
2022/07/23 05:45:30;;;;;;;9.48;5.07;;;;;;;;;;5038329;28;20106;-84
2022/07/23 05:47:56;;;;;;;7.78;4.60;;;;;;;;;;5043720;28;20493;-82
2022/07/23 05:50:22;;;;;;;8.43;5.35;;;;;;;;;;5044009;28;20473;-83
2022/07/23 05:52:48;;;;;;;11.43;5.47;;;;;;;;;;5042424;28;20117;-83
2022/07/23 05:55:14;;;;;;;9.35;4.85;;;;;;;;;;5043017;28;20044;-81
2022/07/23 05:57:41;;;;;;;8.48;4.65;;;;;;;;;;5026400;28;20513;-83
2022/07/23 06:00:08;;;;;;;8.50;4.22;;;;;;;;;;5043966;28;20051;-81
2022/07/23 06:02:34;;;;;;;6.57;4.38;;;;;;;;;;5045359;28;20088;-83
2022/07/23 06:05:00;;;;;;;10.02;4.50;;;;;;;;;;5029618;28;20049;-81
2022/07/23 06:07:26;;;;;;;5.53;4.40;;;;;;;;;;5041036;28;20804;-83
2022/07/23 06:09:52;;;;;;;12.25;4.50;;;;;;;;;;5044411;28;20033;-82
2022/07/23 06:12:18;;;;;;;4.07;3.72;;;;;;;;;;5041694;28;20045;-82
2022/07/23 06:14:45;;;;;;;5.45;3.90;;;;;;;;;;5024384;28;20477;-83
2022/07/23 06:17:11;;;;;;;6.50;3.80;;;;;;;;;;5042849;28;21256;-83
2022/07/23 06:19:37;;;;;;;10.20;3.85;;;;;;;;;;5043516;28;20049;-83
2022/07/23 06:22:03;;;;;;;6.00;3.85;;;;;;;;;;5047612;28;20134;-82
2022/07/23 06:24:29;;;;;;;7.75;3.08;;;;;;;;;;5049221;28;20052;-82
2022/07/23 06:26:55;;;;;;;3.35;2.97;;;;;;;;;;5060725;28;20041;-81
2022/07/23 06:29:21;;;;;;;5.38;3.20;;;;;;;;;;5057954;28;20072;-82
2022/07/23 06:31:47;;;;;;;4.38;3.17;;;;;;;;;;5013276;28;20079;-83
2022/07/23 06:34:13;;;;;;;11.48;2.70;;;;;;;;;;5041750;28;20124;-83
2022/07/23 06:36:39;;;;;;;5.40;3.00;;;;;;;;;;5037070;28;20124;-81
2022/07/23 06:39:05;;;;;;;2.80;2.47;;;;;;;;;;5035561;28;20060;-82
2022/07/23 06:41:32;;;;;;;4.05;2.95;;;;;;;;;;5020102;28;20037;-80
2022/07/23 06:43:58;;;;;;;5.32;1.70;;;;;;;;;;5041830;28;20049;-79
2022/07/23 06:46:25;;;;;;;4.03;1.60;;;;;;;;;;5038468;28;20052;-79
2022/07/23 06:48:51;;;;;;;4.57;1.90;;;;;;;;;;5035469;28;20048;-81
2022/07/23 06:51:17;;;;;;;2.03;1.80;;;;;;;;;;5035701;28;20128;-80
2022/07/23 06:53:43;;;;;;;5.50;1.88;;;;;;;;;;5039432;28;20286;-79
2022/07/23 06:56:09;;;;;;;4.00;1.60;;;;;;;;;;5039242;28;20087;-81
2022/07/23 06:58:35;;;;;;;4.95;1.33;;;;;;;;;;5040580;28;20060;-80
2022/07/23 07:01:01;;;;;;;7.20;1.80;;;;;;;;;;5005539;28;20493;-78
2022/07/23 07:03:28;;;;;;;4.20;1.70;;;;;;;;;;5035394;28;20502;-80
2022/07/23 07:05:54;;;;;;;4.57;1.58;;;;;;;;;;4986965;28;20056;-79
2022/07/23 07:08:20;;;;;;;4.07;1.83;;;;;;;;;;5006001;28;20041;-78
2022/07/23 07:10:48;;;;;;;3.00;1.23;;;;;;;;;;5018861;28;20194;-79
2022/07/23 07:13:14;;;;;;;3.58;1.48;;;;;;;;;;5000676;28;20136;-78
2022/07/23 07:15:40;;;;;;;3.75;1.25;;;;;;;;;;5007779;28;20041;-79
2022/07/23 07:18:06;;;;;;;2.45;0.98;;;;;;;;;;5006402;28;20049;-78
2022/07/23 07:20:32;;;;;;;1.90;0.80;;;;;;;;;;5035307;28;20064;-80
2022/07/23 07:22:58;;;;;;;1.77;0.93;;;;;;;;;;5015640;28;20053;-80
2022/07/23 07:25:24;;;;;;;1.23;0.60;;;;;;;;;;5037560;28;20044;-80
2022/07/23 07:27:50;;;;;;;3.20;0.70;;;;;;;;;;5036372;28;20041;-82
2022/07/23 07:30:16;;;;;;;2.50;0.80;;;;;;;;;;5039740;28;20117;-81
2022/07/23 07:32:42;;;;;;;3.45;0.88;;;;;;;;;;5022541;28;20126;-79
2022/07/23 07:35:09;;;;;;;1.73;0.60;;;;;;;;;;5039051;28;20092;-79
2022/07/23 07:37:35;;;;;;;3.08;0.57;;;;;;;;;;5017469;28;20399;-81
2022/07/23 07:40:02;;;;;;;2.92;0.82;;;;;;;;;;5043768;28;20057;-77
2022/07/23 07:42:28;;;;;;;1.15;0.60;;;;;;;;;;5038287;28;20171;-80
2022/07/23 07:44:55;;;;;;;2.60;0.77;;;;;;;;;;5042431;28;20038;-81
2022/07/23 07:47:21;;;;;;;3.13;0.65;;;;;;;;;;5041157;28;20034;-79
2022/07/23 07:49:56;;;;;;;3.17;0.70;;;;;;;;;;5049041;28;20048;-81
2022/07/23 07:52:43;;;;;;;3.92;0.77;;;;;;;;;;5034036;28;20072;-79
2022/07/23 07:55:35;;;;;;;9.10;1.10;;;;;;;;;;4980006;28;20529;-79
2022/07/23 07:58:02;;;;;;;3.65;0.90;;;;;;;;;;4999013;28;20510;-80
2022/07/23 08:00:30;;;;;;;6.10;1.17;;;;;;;;;;5017234;28;20130;-82
2022/07/23 08:02:56;;;;;;;3.63;0.70;;;;;;;;;;5014019;28;20049;-80
2022/07/23 08:05:24;;;;;;;1.73;0.70;;;;;;;;;;5022274;28;20128;-80
2022/07/23 08:07:50;;;;;;;2.28;0.95;;;;;;;;;;5029126;28;20639;-80
2022/07/23 08:10:16;;;;;;;1.88;0.93;;;;;;;;;;5004827;28;20038;-79
2022/07/23 08:12:53;;;;;;;2.20;0.68;;;;;;;;;;5007127;28;20090;-80
2022/07/23 08:15:21;;;;;;;1.75;0.60;;;;;;;;;;5007092;28;20033;-78
2022/07/23 08:17:50;;;;;;;2.83;0.70;;;;;;;;;;5008678;28;20038;-77
2022/07/23 08:20:17;;;;;;;2.85;0.75;;;;;;;;;;5023498;28;20041;-77
2022/07/23 08:22:43;;;;;;;2.10;0.65;;;;;;;;;;4997329;28;20111;-78
2022/07/23 08:25:10;;;;;;;2.63;0.63;;;;;;;;;;4991034;28;20105;-78
2022/07/23 08:27:36;;;;;;;5.30;0.60;;;;;;;;;;5005486;28;20057;-81
2022/07/23 08:30:09;;;;;;;24.08;4.28;;;;;;;;;;4991289;28;20137;-78
2022/07/23 08:32:48;;;;;;;0.65;0.50;;;;;;;;;;4986949;28;20092;-79
2022/07/23 08:35:14;;;;;;;2.20;0.70;;;;;;;;;;5021480;28;20084;-83
2022/07/23 08:37:40;;;;;;;1.85;0.63;;;;;;;;;;5016910;28;20136;-78
2022/07/23 08:40:07;;;;;;;1.58;0.50;;;;;;;;;;5048355;28;20048;-80
2022/07/23 08:42:35;;;;;;;2.38;0.57;;;;;;;;;;5019269;28;20438;-77
2022/07/23 08:45:02;;;;;;;1.08;0.70;;;;;;;;;;5045258;28;20056;-80
2022/07/23 08:47:29;;;;;;;1.15;0.70;;;;;;;;;;5015715;28;20041;-78
2022/07/23 08:49:55;;;;;;;3.65;0.80;;;;;;;;;;5038174;28;20045;-78
2022/07/23 08:52:21;;;;;;;2.25;0.70;;;;;;;;;;5017519;28;20049;-78
2022/07/23 08:54:47;;;;;;;0.50;0.50;;;;;;;;;;5021640;28;20055;-78
2022/07/23 08:57:13;;;;;;;3.92;0.60;;;;;;;;;;5025312;28;20416;-78
2022/07/23 08:59:40;;;;;;;2.63;0.75;;;;;;;;;;5018038;28;20087;-78
2022/07/23 09:02:06;;;;;;;3.70;0.70;;;;;;;;;;5036377;28;20029;-78
2022/07/23 09:04:32;;;;;;;1.30;0.60;;;;;;;;;;5007130;28;20096;-78
2022/07/23 09:07:02;;;;;;;4.47;0.70;;;;;;;;;;5047459;28;20131;-77
2022/07/23 09:09:30;;;;;;;0.60;0.50;;;;;;;;;;5007551;28;20554;-77
2022/07/23 09:12:08;;;;;;;1.83;0.60;;;;;;;;;;5034658;28;20393;-78
2022/07/23 09:14:41;;;;;;;2.13;0.68;;;;;;;;;;5049834;28;20045;-76
2022/07/23 09:17:11;;;;;;;3.00;0.75;;;;;;;;;;5042877;28;20166;-77
2022/07/23 09:19:37;;;;;;;2.08;0.50;;;;;;;;;;5022619;28;20033;-83
2022/07/23 09:22:23;;;;;;;2.25;0.90;;;;;;;;;;5050269;28;20041;-82
2022/07/23 09:25:08;;;;;;;1.38;0.50;;;;;;;;;;5053679;28;20060;-78
2022/07/23 09:27:57;;;;;;;0.90;0.50;;;20.50;99.90;;;;;;5054297;28;20052;-80
2022/07/23 09:30:29;;;;;;;1.42;0.50;;;20.40;99.90;;;;;;5060966;28;20101;-81
2022/07/23 09:33:05;;;;;;;1.80;0.70;;;;;;;;;;5049842;28;20044;-77
2022/07/23 09:35:48;;;;;;;2.20;0.50;;;;;;;;;;5064988;28;20037;-79
2022/07/23 09:38:15;;;;;;;1.63;0.60;;;;;;;;;;5055781;28;20516;-85
2022/07/23 09:40:41;;;;;;;1.90;0.52;;;;;;;;;;5033221;28;20025;-84
2022/07/23 09:43:08;;;;;;;3.33;0.88;;;;;;;;;;5038971;28;20514;-82
2022/07/23 09:45:35;;;;;;;3.47;0.82;;;;;;;;;;5050221;28;20048;-84
2022/07/23 09:48:11;;;;;;;2.67;0.60;;;;;;;;;;5034747;28;20041;-84
2022/07/23 09:50:37;;;;;;;2.10;0.60;;;;;;;;;;5056397;28;20082;-83
2022/07/23 09:53:03;;;;;;;4.07;0.80;;;;;;;;;;5051881;28;20048;-83
2022/07/23 09:55:41;;;;;;;2.75;0.68;;;;;;;;;;5038223;28;20049;-83
2022/07/23 09:58:13;;;;;;;2.90;1.25;;;;;;;;;;5041404;28;20133;-84
2022/07/23 10:00:39;;;;;;;3.50;0.80;;;;;;;;;;5048722;28;21181;-82
2022/07/23 10:03:06;;;;;;;1.05;0.60;;;;;;;;;;5048874;28;20551;-83
2022/07/23 10:05:34;;;;;;;1.73;0.70;;;;;;;;;;5052090;28;20148;-83
2022/07/23 10:08:02;;;;;;;1.67;0.50;;;;;;;;;;5030753;28;20103;-84
2022/07/23 10:10:29;;;;;;;1.38;0.60;;;;;;;;;;5034889;28;20040;-83
2022/07/23 10:15:41;;;;;;;2.17;0.60;;;;;;;;;;5028680;28;20064;-82
2022/07/23 10:18:07;;;;;;;4.18;0.95;;;;;;;;;;5049288;28;20041;-84
2022/07/23 10:20:33;;;;;;;2.53;0.70;;;;;;;;;;5033109;28;20146;-86
2022/07/23 10:23:07;;;;;;;2.30;0.70;;;;;;;;;;5031417;28;20159;-86
2022/07/23 10:25:48;;;;;;;3.42;0.77;;;;;;;;;;5029313;28;20136;-78
2022/07/23 10:28:41;;;;;;;2.85;0.80;;;;;;;;;;5028120;28;20045;-78
2022/07/23 10:31:19;;;;;;;4.57;0.93;;;;;;;;;;4988372;28;20401;-78
2022/07/23 10:34:08;;;;;;;3.90;0.73;;;;;;;;;;5037145;28;20053;-79
2022/07/23 10:36:53;;;;;;;4.40;0.60;;;;;;;;;;5021504;28;20045;-78
2022/07/23 10:39:45;;;;;;;1.77;0.50;;;;;;;;;;5039398;28;21162;-82
2022/07/23 10:42:15;;;;;;;2.53;0.50;;;;;;;;;;5038156;28;20045;-78
2022/07/23 10:44:43;;;;;;;1.77;0.50;;;;;;;;;;5036865;28;20037;-77
2022/07/23 10:49:43;;;;;;;1.63;0.65;;;;;;;;;;5013816;28;20037;-80
2022/07/23 10:52:15;;;;;;;3.85;0.60;;;;;;;;;;5023071;28;20032;-79
2022/07/23 10:54:41;;;;;;;0.93;0.70;;;;;;;;;;5022059;28;20047;-78
2022/07/23 10:57:08;;;;;;;0.95;0.63;;;;;;;;;;5043231;28;20080;-81
2022/07/23 10:59:53;;;;;;;2.20;0.85;;;;;;;;;;5010952;28;20036;-80
2022/07/23 11:02:23;;;;;;;3.58;0.68;;;;;;;;;;5047668;28;20076;-79
2022/07/23 11:04:49;;;;;;;3.42;1.23;;;;;;;;;;5024563;28;20119;-82
2022/07/23 11:07:16;;;;;;;2.35;0.90;;;;;;;;;;5038736;28;20053;-79
2022/07/23 11:09:43;;;;;;;3.92;0.63;;;;;;;;;;5040239;28;20794;-80
2022/07/23 11:12:22;;;;;;;8.18;1.00;;;;;;;;;;5042929;28;20110;-80
2022/07/23 11:15:14;;;;;;;1.75;0.55;;;;;;;;;;5020011;28;20051;-78
2022/07/23 11:17:43;;;;;;;4.32;0.77;;;;;;;;;;5038004;28;20635;-79
2022/07/23 11:20:09;;;;;;;1.88;0.82;;;;;;;;;;5039176;28;20045;-81
2022/07/23 11:22:36;;;;;;;1.77;0.77;;;;;;;;;;5041880;28;20107;-83
2022/07/23 11:25:02;;;;;;;1.48;0.80;;;;;;;;;;5046291;28;20029;-84
2022/07/23 11:27:46;;;;;;;3.67;0.77;;;;;;;;;;5020547;28;20029;-79
2022/07/23 11:30:32;;;;;;;3.33;0.80;;;;;;;;;;5022704;28;20084;-78
2022/07/23 11:33:07;;;;;;;3.83;0.90;;;;;;;;;;5007289;28;20053;-78
2022/07/23 11:35:34;;;;;;;12.38;1.05;;;;;;;;;;5038986;28;20040;-79
2022/07/23 11:38:12;;;;;;;1.95;0.90;;;;;;;;;;5040792;28;20072;-81
2022/07/23 11:40:39;;;;;;;2.95;0.80;;;;;;;;;;5021973;28;20477;-80
2022/07/23 11:43:06;;;;;;;3.88;0.70;;;;;;;;;;5019291;28;20045;-80
2022/07/23 11:45:40;;;;;;;2.20;0.70;;;;;;;;;;5012868;28;20087;-81
2022/07/23 11:48:08;;;;;;;2.25;0.77;;;;;;;;;;5054193;28;20059;-78
2022/07/23 11:50:35;;;;;;;3.83;0.80;;;;;;;;;;5028294;28;20129;-78
2022/07/23 11:53:01;;;;;;;5.63;1.10;;;;;;;;;;5037076;28;20064;-77
2022/07/23 11:55:28;;;;;;;1.27;0.63;;;;;;;;;;5053783;28;20044;-78
2022/07/23 11:57:56;;;;;;;6.28;0.85;;;;;;;;;;5033129;28;20049;-77
2022/07/23 12:00:23;;;;;;;4.90;1.23;;;;;;;;;;5019363;28;20036;-77
2022/07/23 12:02:50;;;;;;;4.00;0.90;;;;;;;;;;5031496;28;20036;-81
2022/07/23 12:05:18;;;;;;;2.28;1.00;;;;;;;;;;5047222;28;20029;-79
2022/07/23 12:07:44;;;;;;;5.25;0.95;;;;;;;;;;5021044;28;20132;-80
2022/07/23 12:10:15;;;;;;;3.47;0.70;;;;;;;;;;5035925;28;20074;-82
2022/07/23 12:12:42;;;;;;;2.83;1.00;;;;;;;;;;5052651;28;20083;-77
2022/07/23 12:15:09;;;;;;;5.85;1.33;;;;;;;;;;5032840;28;20113;-78
2022/07/23 12:17:37;;;;;;;3.80;1.05;;;;;;;;;;5019601;28;20053;-79
2022/07/23 12:20:07;;;;;;;3.10;0.88;;;;;;;;;;5045532;28;20546;-78
2022/07/23 12:22:35;;;;;;;8.07;1.20;;;;;;;;;;5050258;28;20162;-77
2022/07/23 12:25:22;;;;;;;3.38;0.90;;;;;;;;;;5051535;28;20398;-78
2022/07/23 12:28:00;;;;;;;5.90;0.90;;;;;;;;;;5019874;28;20079;-78
2022/07/23 12:30:28;;;;;;;4.10;0.93;;;;;;;;;;5037263;28;20050;-77
2022/07/23 12:32:56;;;;;;;2.53;1.00;;;;;;;;;;5056826;28;20041;-80
2022/07/23 12:35:23;;;;;;;4.32;0.93;;;;;;;;;;5066827;28;20049;-81
2022/07/23 12:37:55;;;;;;;3.35;1.13;;;;;;;;;;5064086;28;20045;-80
2022/07/23 12:40:32;;;;;;;1.92;0.95;;;;;;;;;;5062370;28;20049;-77
2022/07/23 12:43:04;;;;;;;2.42;1.20;;;;;;;;;;5051165;28;20099;-79
2022/07/23 12:45:47;;;;;;;2.22;0.93;;;;;;;;;;5041636;28;20535;-79
2022/07/23 12:48:24;;;;;;;5.77;1.00;;;;;;;;;;5015539;28;20046;-77
2022/07/23 12:51:00;;;;;;;1.58;0.82;;;;;;;;;;5029542;28;20038;-81
2022/07/23 12:53:26;;;;;;;3.13;1.08;;;;;;;;;;5025823;28;20045;-78
2022/07/23 12:55:59;;;;;;;4.07;0.90;;;;;;;;;;5029872;28;20099;-79
2022/07/23 12:58:25;;;;;;;2.92;0.90;;;;;;;;;;5026175;28;20037;-79
2022/07/23 13:00:51;;;;;;;2.75;1.00;;;;;;;;;;5046846;28;20041;-82
2022/07/23 13:03:24;;;;;;;3.25;0.88;;;;;;;;;;5009700;28;20041;-80
2022/07/23 13:05:50;;;;;;;4.15;0.88;;;;;;;;;;5034083;28;20080;-80
2022/07/23 13:08:16;;;;;;;2.13;0.75;;;;;;;;;;5051807;28;20127;-81
2022/07/23 13:10:47;;;;;;;5.70;0.93;;;;;;;;;;5013410;28;20506;-80
2022/07/23 13:13:26;;;;;;;4.63;1.20;;;;;;;;;;5017975;28;20044;-82
2022/07/23 13:15:53;;;;;;;4.45;1.10;;;;;;;;;;5031754;28;20042;-80
2022/07/23 13:18:19;;;;;;;5.43;1.10;;;;;;;;;;5046549;28;20033;-81
2022/07/23 13:20:46;;;;;;;2.00;0.80;;;;;;;;;;5043060;28;20052;-81
2022/07/23 13:23:12;;;;;;;3.80;1.02;;;;;;;;;;5041380;28;20075;-80
2022/07/23 13:25:38;;;;;;;2.85;0.77;;;;;;;;;;5048847;28;20045;-88
2022/07/23 13:28:05;;;;;;;3.85;1.20;;;;;;;;;;5030455;28;20045;-81
2022/07/23 13:30:31;;;;;;;4.03;0.85;;;;;;;;;;5056490;28;20037;-87
2022/07/23 13:32:57;;;;;;;3.38;1.00;;;;;;;;;;5037594;28;20120;-84
2022/07/23 13:35:24;;;;;;;3.17;1.00;;;;;;;;;;5052934;28;20186;-81
2022/07/23 13:38:08;;;;;;;3.05;0.93;;;24.10;99.90;;;;;;5006877;28;20037;-84
2022/07/23 13:40:39;;;;;;;6.90;0.95;;;;;;;;;;5044507;28;20116;-85
2022/07/23 13:43:13;;;;;;;4.78;0.90;;;;;;;;;;5039945;28;20055;-86
2022/07/23 13:45:39;;;;;;;1.40;0.90;;;;;;;;;;5027836;28;20320;-86
2022/07/23 13:48:06;;;;;;;3.80;0.82;;;;;;;;;;5062139;28;20052;-86
2022/07/23 13:50:32;;;;;;;3.08;0.85;;;;;;;;;;5061293;28;20053;-84
2022/07/23 13:53:01;;;;;;;2.60;1.05;;;;;;;;;;5063069;28;20071;-86
2022/07/23 13:55:27;;;;;;;4.65;0.88;;;;;;;;;;5061213;28;20044;-88
2022/07/23 13:57:53;;;;;;;1.13;0.63;;;;;;;;;;5061259;28;20034;-85
2022/07/23 14:00:19;;;;;;;4.65;0.90;;;;;;;;;;5063112;28;20104;-88
2022/07/23 14:02:45;;;;;;;5.88;0.90;;;;;;;;;;5054406;28;20055;-86
2022/07/23 14:05:11;;;;;;;2.97;0.75;;;;;;;;;;5063058;28;20025;-86
2022/07/23 14:07:38;;;;;;;2.10;1.00;;;;;;;;;;5048589;28;20187;-85
2022/07/23 14:10:05;;;;;;;1.30;1.02;;;;;;;;;;5032563;28;20037;-84
2022/07/23 14:12:31;;;;;;;6.55;0.85;;;;;;;;;;5055990;28;20049;-81
2022/07/23 14:18:02;;;;;;;2.17;0.70;;;;;;;;;;5040650;28;20033;-78
2022/07/23 14:20:28;;;;;;;2.85;0.77;;;;;;;;;;5041792;28;20045;-80
2022/07/23 14:22:56;;;;;;;4.15;1.98;;;;;;;;;;5046964;28;20045;-83
2022/07/23 14:25:22;;;;;;;4.93;1.15;;;;;;;;;;5015936;22;20042;-84
2022/07/23 14:27:48;;;;;;;1.63;0.70;;;;;;;;;;5005049;28;20049;-84
2022/07/23 14:30:15;;;;;;;1.83;0.70;;;;;;;;;;5041326;28;20068;-85
2022/07/23 14:32:41;;;;;;;3.60;0.70;;;;;;;;;;5007092;28;20063;-82
2022/07/23 14:35:10;;;;;;;1.85;0.80;;;;;;;;;;5024024;28;20060;-80
2022/07/23 14:37:51;;;;;;;3.25;1.08;;;;;;;;;;5003326;28;20084;-82
2022/07/23 14:40:26;;;;;;;6.10;0.85;;;;;;;;;;5027470;28;20049;-82
2022/07/23 14:42:53;;;;;;;4.18;1.52;;;;;;;;;;5042032;28;20121;-86
2022/07/23 14:45:19;;;;;;;1.08;0.60;;;;;;;;;;5006993;28;20125;-82
2022/07/23 14:47:46;;;;;;;1.20;0.70;;;;;;;;;;5041270;28;20041;-87
2022/07/23 14:50:13;;;;;;;1.88;0.80;;;;;;;;;;5038942;28;20045;-80
2022/07/23 14:52:39;;;;;;;3.53;0.77;;;;;;;;;;5037854;28;20038;-85
2022/07/23 14:55:05;;;;;;;4.13;0.98;;;;;;;;;;5025654;28;20033;-83
2022/07/23 14:57:31;;;;;;;2.92;0.75;;;;;;;;;;5029689;28;20136;-81
2022/07/23 14:59:57;;;;;;;2.28;0.82;;;;;;;;;;5040212;28;20167;-82